TVF35FJ LFPO-LFML
Flight info
| Callsign | TVF35FJ |
|---|---|
| Flight time | 1h 5m |
| Altitude | 27000 |
| Route | LATRA DCT LAMUT DCT UTUVA DCT LERGA |
| Aircraft | B738/M-SDFGHIJ1RWXY/LB1 |
Departure
| Time | 2026-05-03 21:06 |
|---|---|
| Airport | Paris-Orly Airport (LFPO) |
Arrival
| Time | 2026-05-03 22:11 |
|---|---|
| Airport | Marseille Provence Airport (LFML) |
| Time | Latitude | Longitude | Altitude | Speed | Heading |
|---|---|---|---|---|---|
| 2026-05-03 20:42 | 48.72313 | 2.36049 | 273 ft | 0 kts | 180° |
| 2026-05-03 20:57 | 48.72330 | 2.36046 | 306 ft | 4 kts | 161° |
| 2026-05-03 20:57 | 48.72355 | 2.36037 | 305 ft | 4 kts | 178° |
| 2026-05-03 20:58 | 48.72380 | 2.36045 | 303 ft | 4 kts | 218° |
| 2026-05-03 20:58 | 48.72393 | 2.36072 | 303 ft | 1 kts | 254° |
| 2026-05-03 20:58 | 48.72394 | 2.36073 | 303 ft | 0 kts | 254° |
| 2026-05-03 21:01 | 48.72391 | 2.36060 | 299 ft | 5 kts | 254° |
| 2026-05-03 21:01 | 48.72376 | 2.35977 | 300 ft | 10 kts | 254° |
| 2026-05-03 21:01 | 48.72353 | 2.35854 | 302 ft | 14 kts | 253° |
| 2026-05-03 21:01 | 48.72329 | 2.35692 | 302 ft | 17 kts | 277° |
| 2026-05-03 21:02 | 48.72426 | 2.35613 | 301 ft | 16 kts | 344° |
| 2026-05-03 21:02 | 48.72545 | 2.35563 | 304 ft | 19 kts | 344° |
| 2026-05-03 21:02 | 48.72686 | 2.35502 | 305 ft | 23 kts | 344° |
| 2026-05-03 21:02 | 48.72838 | 2.35438 | 302 ft | 11 kts | 344° |
| 2026-05-03 21:03 | 48.72891 | 2.35401 | 302 ft | 0 kts | 310° |
| 2026-05-03 21:04 | 48.72906 | 2.35374 | 304 ft | 8 kts | 311° |
| 2026-05-03 21:04 | 48.72986 | 2.35392 | 303 ft | 17 kts | 14° |
| 2026-05-03 21:04 | 48.73103 | 2.35437 | 302 ft | 15 kts | 15° |
| 2026-05-03 21:04 | 48.73200 | 2.35474 | 302 ft | 12 kts | 1° |
| 2026-05-03 21:05 | 48.73258 | 2.35434 | 302 ft | 9 kts | 313° |
| 2026-05-03 21:05 | 48.73288 | 2.35351 | 300 ft | 9 kts | 273° |
| 2026-05-03 21:05 | 48.73258 | 2.35252 | 299 ft | 17 kts | 242° |
| 2026-05-03 21:05 | 48.73088 | 2.34774 | 302 ft | 86 kts | 241° |
| 2026-05-03 21:06 | 48.72702 | 2.33688 | 304 ft | 145 kts | 240° |
| 2026-05-03 21:06 | 48.72168 | 2.32143 | 494 ft | 177 kts | 241° |
| 2026-05-03 21:06 | 48.71597 | 2.30500 | 1322 ft | 175 kts | 242° |
| 2026-05-03 21:06 | 48.71042 | 2.28898 | 2246 ft | 166 kts | 242° |
| 2026-05-03 21:07 | 48.70489 | 2.27390 | 3003 ft | 168 kts | 241° |
| 2026-05-03 21:07 | 48.69914 | 2.25790 | 3591 ft | 175 kts | 241° |
| 2026-05-03 21:07 | 48.69324 | 2.24138 | 4161 ft | 187 kts | 241° |
| 2026-05-03 21:07 | 48.68676 | 2.22296 | 4352 ft | 209 kts | 242° |
| 2026-05-03 21:08 | 48.67965 | 2.20247 | 4560 ft | 229 kts | 242° |
| 2026-05-03 21:08 | 48.67064 | 2.18185 | 4859 ft | 246 kts | 223° |
| 2026-05-03 21:08 | 48.65499 | 2.17058 | 5356 ft | 259 kts | 186° |
| 2026-05-03 21:08 | 48.63729 | 2.17610 | 6078 ft | 269 kts | 152° |
| 2026-05-03 21:09 | 48.62206 | 2.19300 | 6849 ft | 272 kts | 148° |
| 2026-05-03 21:09 | 48.60603 | 2.20797 | 7635 ft | 270 kts | 153° |
| 2026-05-03 21:09 | 48.58983 | 2.22188 | 8294 ft | 276 kts | 154° |
| 2026-05-03 21:09 | 48.57281 | 2.23628 | 8893 ft | 284 kts | 154° |
| 2026-05-03 21:10 | 48.55559 | 2.25086 | 9722 ft | 281 kts | 154° |
| 2026-05-03 21:10 | 48.53843 | 2.26537 | 10094 ft | 291 kts | 154° |
| 2026-05-03 21:10 | 48.52071 | 2.28033 | 10039 ft | 291 kts | 154° |
| 2026-05-03 21:10 | 48.50282 | 2.29546 | 10109 ft | 302 kts | 154° |
| 2026-05-03 21:11 | 48.48426 | 2.31115 | 10602 ft | 310 kts | 154° |
| 2026-05-03 21:11 | 48.46471 | 2.32477 | 11263 ft | 309 kts | 163° |
| 2026-05-03 21:11 | 48.44428 | 2.33474 | 11994 ft | 309 kts | 167° |
| 2026-05-03 21:11 | 48.42354 | 2.34405 | 12685 ft | 312 kts | 167° |
| 2026-05-03 21:12 | 48.40267 | 2.35347 | 13390 ft | 314 kts | 167° |
| 2026-05-03 21:12 | 48.38142 | 2.36329 | 13800 ft | 329 kts | 166° |
| 2026-05-03 21:12 | 48.35893 | 2.37389 | 13972 ft | 347 kts | 166° |
| 2026-05-03 21:12 | 48.33600 | 2.38489 | 14427 ft | 354 kts | 166° |
| 2026-05-03 21:13 | 48.31240 | 2.39629 | 15040 ft | 357 kts | 166° |
| 2026-05-03 21:13 | 48.28868 | 2.40773 | 15719 ft | 359 kts | 166° |
| 2026-05-03 21:13 | 48.26492 | 2.41977 | 16357 ft | 362 kts | 164° |
| 2026-05-03 21:13 | 48.24107 | 2.43251 | 16967 ft | 366 kts | 164° |
| 2026-05-03 21:14 | 48.21700 | 2.44552 | 17584 ft | 369 kts | 164° |
| 2026-05-03 21:14 | 48.19272 | 2.45860 | 18171 ft | 373 kts | 164° |
| 2026-05-03 21:14 | 48.16798 | 2.47184 | 18570 ft | 380 kts | 164° |
| 2026-05-03 21:14 | 48.14304 | 2.48513 | 19182 ft | 380 kts | 164° |
| 2026-05-03 21:15 | 48.11821 | 2.49834 | 19845 ft | 379 kts | 164° |
| 2026-05-03 21:15 | 48.09334 | 2.51152 | 20438 ft | 379 kts | 165° |
| 2026-05-03 21:15 | 48.06836 | 2.52455 | 20973 ft | 381 kts | 165° |
| 2026-05-03 21:15 | 48.04318 | 2.53712 | 21511 ft | 383 kts | 166° |
| 2026-05-03 21:16 | 48.01785 | 2.54952 | 22046 ft | 384 kts | 166° |
| 2026-05-03 21:16 | 47.99234 | 2.56195 | 22538 ft | 386 kts | 166° |
| 2026-05-03 21:16 | 47.96691 | 2.57437 | 23267 ft | 382 kts | 166° |
| 2026-05-03 21:16 | 47.94190 | 2.58663 | 24034 ft | 375 kts | 166° |
| 2026-05-03 21:17 | 47.91726 | 2.59872 | 24620 ft | 373 kts | 167° |
| 2026-05-03 21:17 | 47.90090 | 2.60673 | 24918 ft | 374 kts | 167° |
| 2026-05-03 21:17 | 47.86782 | 2.62291 | 25544 ft | 374 kts | 167° |
| 2026-05-03 21:17 | 47.84350 | 2.63482 | 26099 ft | 372 kts | 167° |
| 2026-05-03 21:18 | 47.81900 | 2.64682 | 26644 ft | 370 kts | 168° |
| 2026-05-03 21:18 | 47.79419 | 2.65894 | 26967 ft | 371 kts | 168° |
| 2026-05-03 21:18 | 47.77004 | 2.67073 | 26944 ft | 369 kts | 167° |
| 2026-05-03 21:18 | 47.74560 | 2.68266 | 27019 ft | 371 kts | 167° |
| 2026-05-03 21:19 | 47.72108 | 2.69461 | 27499 ft | 369 kts | 168° |
| 2026-05-03 21:19 | 47.69683 | 2.70644 | 28012 ft | 369 kts | 168° |
| 2026-05-03 21:19 | 47.67228 | 2.71836 | 28372 ft | 371 kts | 168° |
| 2026-05-03 21:19 | 47.64793 | 2.73021 | 29004 ft | 367 kts | 168° |
| 2026-05-03 21:20 | 47.63146 | 2.73821 | 29145 ft | 372 kts | 168° |
| 2026-05-03 21:20 | 47.60662 | 2.75020 | 29329 ft | 378 kts | 168° |
| 2026-05-03 21:20 | 47.58157 | 2.76233 | 29739 ft | 379 kts | 168° |
| 2026-05-03 21:20 | 47.55652 | 2.77447 | 30139 ft | 379 kts | 168° |
| 2026-05-03 21:21 | 47.53171 | 2.78648 | 30432 ft | 381 kts | 168° |
| 2026-05-03 21:21 | 47.50609 | 2.79886 | 30690 ft | 384 kts | 168° |
| 2026-05-03 21:21 | 47.48060 | 2.81116 | 30952 ft | 387 kts | 168° |
| 2026-05-03 21:21 | 47.45496 | 2.82353 | 31231 ft | 388 kts | 168° |
| 2026-05-03 21:22 | 47.42922 | 2.83594 | 31512 ft | 390 kts | 169° |
| 2026-05-03 21:22 | 47.40334 | 2.84840 | 31774 ft | 392 kts | 169° |
| 2026-05-03 21:22 | 47.37731 | 2.86092 | 32024 ft | 394 kts | 169° |
| 2026-05-03 21:22 | 47.35118 | 2.87347 | 32286 ft | 396 kts | 169° |
| 2026-05-03 21:23 | 47.32488 | 2.88609 | 32505 ft | 398 kts | 168° |
| 2026-05-03 21:23 | 47.29878 | 2.89861 | 32737 ft | 400 kts | 169° |
| 2026-05-03 21:23 | 47.24508 | 2.92429 | 32961 ft | 410 kts | 168° |
| 2026-05-03 21:24 | 47.21794 | 2.93729 | 33264 ft | 410 kts | 168° |
| 2026-05-03 21:24 | 47.19083 | 2.95026 | 33555 ft | 410 kts | 169° |
| 2026-05-03 21:24 | 47.16365 | 2.96324 | 33782 ft | 412 kts | 169° |
| 2026-05-03 21:24 | 47.13632 | 2.97625 | 33984 ft | 413 kts | 168° |
| 2026-05-03 21:25 | 47.10892 | 2.98922 | 34192 ft | 414 kts | 169° |
| 2026-05-03 21:25 | 47.08131 | 3.00125 | 34388 ft | 414 kts | 170° |
| 2026-05-03 21:25 | 47.05354 | 3.01262 | 34559 ft | 415 kts | 171° |
| 2026-05-03 21:25 | 47.02565 | 3.02379 | 34725 ft | 417 kts | 171° |
| 2026-05-03 21:26 | 46.99765 | 3.03499 | 34888 ft | 418 kts | 170° |
| 2026-05-03 21:26 | 46.96956 | 3.04630 | 35061 ft | 419 kts | 170° |
| 2026-05-03 21:26 | 46.94136 | 3.05772 | 35220 ft | 421 kts | 170° |
| 2026-05-03 21:26 | 46.91309 | 3.06923 | 35360 ft | 422 kts | 169° |
| 2026-05-03 21:27 | 46.88476 | 3.08080 | 35526 ft | 424 kts | 169° |
| 2026-05-03 21:27 | 46.85636 | 3.09242 | 35739 ft | 423 kts | 169° |
| 2026-05-03 21:27 | 46.82804 | 3.10400 | 35965 ft | 423 kts | 169° |
| 2026-05-03 21:27 | 46.79972 | 3.11558 | 36165 ft | 423 kts | 169° |
| 2026-05-03 21:28 | 46.77134 | 3.12714 | 36355 ft | 423 kts | 169° |
| 2026-05-03 21:28 | 46.74298 | 3.13864 | 36536 ft | 423 kts | 169° |
| 2026-05-03 21:28 | 46.71457 | 3.15011 | 36718 ft | 424 kts | 169° |
| 2026-05-03 21:28 | 46.68618 | 3.16150 | 36913 ft | 423 kts | 169° |
| 2026-05-03 21:29 | 46.62919 | 3.18443 | 36998 ft | 427 kts | 168° |
| 2026-05-03 21:29 | 46.57217 | 3.20761 | 36998 ft | 424 kts | 168° |
| 2026-05-03 21:30 | 46.51550 | 3.23060 | 36970 ft | 421 kts | 168° |
| 2026-05-03 21:30 | 46.45923 | 3.25333 | 36993 ft | 419 kts | 168° |
| 2026-05-03 21:31 | 46.40358 | 3.27574 | 37010 ft | 417 kts | 169° |
| 2026-05-03 21:31 | 46.34763 | 3.29821 | 36999 ft | 417 kts | 169° |
| 2026-05-03 21:32 | 46.29161 | 3.32067 | 37010 ft | 418 kts | 169° |
| 2026-05-03 21:32 | 46.23548 | 3.34312 | 37014 ft | 420 kts | 169° |
| 2026-05-03 21:33 | 46.17906 | 3.36564 | 37002 ft | 421 kts | 169° |
| 2026-05-03 21:33 | 46.12246 | 3.38819 | 36999 ft | 423 kts | 169° |
| 2026-05-03 21:34 | 46.06556 | 3.41082 | 36866 ft | 427 kts | 169° |
| 2026-05-03 21:34 | 46.03684 | 3.42221 | 36584 ft | 428 kts | 169° |
| 2026-05-03 21:34 | 46.00828 | 3.43355 | 36324 ft | 423 kts | 169° |
| 2026-05-03 21:35 | 45.98015 | 3.44473 | 36068 ft | 417 kts | 169° |
| 2026-05-03 21:35 | 45.95238 | 3.45574 | 35811 ft | 412 kts | 169° |
| 2026-05-03 21:35 | 45.92487 | 3.46661 | 35561 ft | 409 kts | 169° |
| 2026-05-03 21:35 | 45.89749 | 3.47741 | 35322 ft | 407 kts | 170° |
| 2026-05-03 21:36 | 45.87030 | 3.48813 | 35080 ft | 404 kts | 170° |
| 2026-05-03 21:36 | 45.84327 | 3.49908 | 34834 ft | 403 kts | 169° |
| 2026-05-03 21:36 | 45.81645 | 3.51055 | 34591 ft | 401 kts | 169° |
| 2026-05-03 21:36 | 45.78984 | 3.52217 | 34353 ft | 399 kts | 169° |
| 2026-05-03 21:37 | 45.76339 | 3.53374 | 34108 ft | 397 kts | 169° |
| 2026-05-03 21:37 | 45.73704 | 3.54523 | 33856 ft | 395 kts | 169° |
| 2026-05-03 21:37 | 45.71081 | 3.55660 | 33581 ft | 393 kts | 169° |
| 2026-05-03 21:37 | 45.68471 | 3.56786 | 33306 ft | 391 kts | 169° |
| 2026-05-03 21:38 | 45.65870 | 3.57905 | 33026 ft | 390 kts | 169° |
| 2026-05-03 21:38 | 45.63277 | 3.59018 | 32759 ft | 388 kts | 169° |
| 2026-05-03 21:38 | 45.60696 | 3.60125 | 32505 ft | 387 kts | 169° |
| 2026-05-03 21:38 | 45.58125 | 3.61227 | 32242 ft | 385 kts | 169° |
| 2026-05-03 21:39 | 45.55561 | 3.62324 | 31978 ft | 384 kts | 169° |
| 2026-05-03 21:39 | 45.53002 | 3.63418 | 31743 ft | 383 kts | 169° |
| 2026-05-03 21:39 | 45.50450 | 3.64507 | 31465 ft | 383 kts | 169° |
| 2026-05-03 21:39 | 45.47902 | 3.65594 | 31215 ft | 382 kts | 169° |
| 2026-05-03 21:40 | 45.45360 | 3.66678 | 30971 ft | 381 kts | 169° |
| 2026-05-03 21:40 | 45.42825 | 3.67758 | 30715 ft | 380 kts | 169° |
| 2026-05-03 21:40 | 45.40295 | 3.68835 | 30477 ft | 379 kts | 169° |
| 2026-05-03 21:40 | 45.37771 | 3.69909 | 30238 ft | 378 kts | 169° |
| 2026-05-03 21:41 | 45.35291 | 3.70962 | 29974 ft | 377 kts | 169° |
| 2026-05-03 21:41 | 45.32752 | 3.72040 | 29692 ft | 375 kts | 169° |
| 2026-05-03 21:41 | 45.30290 | 3.73084 | 29400 ft | 374 kts | 169° |
| 2026-05-03 21:41 | 45.27807 | 3.74187 | 29118 ft | 376 kts | 163° |
| 2026-05-03 21:42 | 45.25555 | 3.76165 | 28828 ft | 387 kts | 144° |
| 2026-05-03 21:42 | 45.23772 | 3.79046 | 28561 ft | 392 kts | 130° |
| 2026-05-03 21:42 | 45.22274 | 3.82282 | 28230 ft | 393 kts | 128° |
| 2026-05-03 21:42 | 45.20821 | 3.85561 | 27862 ft | 392 kts | 127° |
| 2026-05-03 21:43 | 45.19382 | 3.88829 | 27560 ft | 388 kts | 127° |
| 2026-05-03 21:43 | 45.17953 | 3.92047 | 27301 ft | 384 kts | 128° |
| 2026-05-03 21:43 | 45.16520 | 3.95237 | 27044 ft | 383 kts | 128° |
| 2026-05-03 21:43 | 45.15080 | 3.98410 | 26785 ft | 383 kts | 128° |
| 2026-05-03 21:44 | 45.13635 | 4.01577 | 26542 ft | 382 kts | 128° |
| 2026-05-03 21:44 | 45.12194 | 4.04729 | 26282 ft | 380 kts | 128° |
| 2026-05-03 21:44 | 45.10759 | 4.07863 | 26022 ft | 379 kts | 128° |
| 2026-05-03 21:44 | 45.09328 | 4.10983 | 25776 ft | 377 kts | 128° |
| 2026-05-03 21:45 | 45.07904 | 4.14088 | 25537 ft | 376 kts | 128° |
| 2026-05-03 21:45 | 45.06483 | 4.17181 | 25299 ft | 374 kts | 128° |
| 2026-05-03 21:45 | 45.05065 | 4.20263 | 25056 ft | 373 kts | 128° |
| 2026-05-03 21:45 | 45.03597 | 4.23263 | 24792 ft | 368 kts | 137° |
| 2026-05-03 21:46 | 45.01650 | 4.25481 | 24562 ft | 355 kts | 154° |
| 2026-05-03 21:46 | 44.99527 | 4.27243 | 24345 ft | 353 kts | 155° |
| 2026-05-03 21:46 | 44.97393 | 4.28957 | 24116 ft | 352 kts | 155° |
| 2026-05-03 21:46 | 44.95263 | 4.30662 | 23883 ft | 352 kts | 155° |
| 2026-05-03 21:47 | 44.93145 | 4.32368 | 23653 ft | 350 kts | 155° |
| 2026-05-03 21:47 | 44.91036 | 4.34078 | 23379 ft | 349 kts | 155° |
| 2026-05-03 21:47 | 44.88937 | 4.35788 | 23102 ft | 348 kts | 154° |
| 2026-05-03 21:47 | 44.86843 | 4.37497 | 22846 ft | 347 kts | 154° |
| 2026-05-03 21:48 | 44.84753 | 4.39205 | 22567 ft | 347 kts | 154° |
| 2026-05-03 21:48 | 44.82674 | 4.40906 | 22303 ft | 345 kts | 154° |
| 2026-05-03 21:48 | 44.80602 | 4.42599 | 22056 ft | 343 kts | 154° |
| 2026-05-03 21:48 | 44.78539 | 4.44284 | 21788 ft | 342 kts | 154° |
| 2026-05-03 21:49 | 44.76482 | 4.45962 | 21532 ft | 341 kts | 154° |
| 2026-05-03 21:49 | 44.74434 | 4.47632 | 21279 ft | 340 kts | 154° |
| 2026-05-03 21:49 | 44.72390 | 4.49297 | 21020 ft | 338 kts | 154° |
| 2026-05-03 21:49 | 44.70357 | 4.50952 | 20787 ft | 337 kts | 154° |
| 2026-05-03 21:50 | 44.68330 | 4.52599 | 20526 ft | 336 kts | 154° |
| 2026-05-03 21:50 | 44.66251 | 4.54048 | 20257 ft | 330 kts | 167° |
| 2026-05-03 21:50 | 44.64032 | 4.54776 | 20044 ft | 326 kts | 171° |
| 2026-05-03 21:50 | 44.61816 | 4.55434 | 19793 ft | 325 kts | 171° |
| 2026-05-03 21:51 | 44.59604 | 4.56090 | 19560 ft | 324 kts | 171° |
| 2026-05-03 21:51 | 44.57404 | 4.56755 | 19319 ft | 323 kts | 171° |
| 2026-05-03 21:51 | 44.55224 | 4.57423 | 19045 ft | 319 kts | 170° |
| 2026-05-03 21:51 | 44.53056 | 4.58093 | 18724 ft | 318 kts | 170° |
| 2026-05-03 21:52 | 44.50899 | 4.58762 | 18406 ft | 317 kts | 170° |
| 2026-05-03 21:52 | 44.48746 | 4.59431 | 18028 ft | 317 kts | 170° |
| 2026-05-03 21:52 | 44.46599 | 4.60099 | 17675 ft | 315 kts | 170° |
| 2026-05-03 21:52 | 44.44459 | 4.60765 | 17333 ft | 314 kts | 170° |
| 2026-05-03 21:53 | 44.42332 | 4.61427 | 16993 ft | 313 kts | 169° |
| 2026-05-03 21:53 | 44.40212 | 4.62086 | 16653 ft | 311 kts | 169° |
| 2026-05-03 21:53 | 44.38103 | 4.62742 | 16324 ft | 310 kts | 169° |
| 2026-05-03 21:53 | 44.36007 | 4.63393 | 15996 ft | 308 kts | 169° |
| 2026-05-03 21:54 | 44.33915 | 4.64042 | 15668 ft | 307 kts | 169° |
| 2026-05-03 21:54 | 44.31836 | 4.64686 | 15340 ft | 306 kts | 169° |
| 2026-05-03 21:54 | 44.29749 | 4.65211 | 15012 ft | 304 kts | 175° |
| 2026-05-03 21:54 | 44.27678 | 4.65518 | 14694 ft | 302 kts | 176° |
| 2026-05-03 21:55 | 44.25588 | 4.65785 | 14374 ft | 302 kts | 176° |
| 2026-05-03 21:55 | 44.23498 | 4.66055 | 14038 ft | 301 kts | 176° |
| 2026-05-03 21:55 | 44.21410 | 4.66337 | 13682 ft | 301 kts | 176° |
| 2026-05-03 21:55 | 44.19331 | 4.66629 | 13333 ft | 300 kts | 175° |
| 2026-05-03 21:56 | 44.17261 | 4.66926 | 12991 ft | 299 kts | 175° |
| 2026-05-03 21:56 | 44.15197 | 4.67226 | 12652 ft | 298 kts | 175° |
| 2026-05-03 21:56 | 44.13144 | 4.67524 | 12310 ft | 296 kts | 175° |
| 2026-05-03 21:56 | 44.11117 | 4.68000 | 11975 ft | 296 kts | 164° |
| 2026-05-03 21:57 | 44.09198 | 4.69019 | 11660 ft | 295 kts | 159° |
| 2026-05-03 21:57 | 44.07320 | 4.70157 | 11340 ft | 294 kts | 158° |
| 2026-05-03 21:57 | 44.05451 | 4.71275 | 10971 ft | 290 kts | 159° |
| 2026-05-03 21:57 | 44.03617 | 4.72336 | 10625 ft | 281 kts | 160° |
| 2026-05-03 21:58 | 44.01824 | 4.73352 | 10329 ft | 277 kts | 160° |
| 2026-05-03 21:58 | 44.00070 | 4.74339 | 10211 ft | 268 kts | 160° |
| 2026-05-03 21:58 | 43.98360 | 4.75299 | 10082 ft | 260 kts | 160° |
| 2026-05-03 21:58 | 43.96704 | 4.76231 | 9914 ft | 255 kts | 160° |
| 2026-05-03 21:59 | 43.95065 | 4.77151 | 9621 ft | 253 kts | 160° |
| 2026-05-03 21:59 | 43.93433 | 4.78067 | 9351 ft | 255 kts | 160° |
| 2026-05-03 21:59 | 43.91775 | 4.78996 | 9080 ft | 259 kts | 160° |
| 2026-05-03 21:59 | 43.90088 | 4.79942 | 8787 ft | 264 kts | 159° |
| 2026-05-03 22:00 | 43.88371 | 4.80905 | 8499 ft | 267 kts | 159° |
| 2026-05-03 22:00 | 43.86652 | 4.81869 | 8185 ft | 266 kts | 159° |
| 2026-05-03 22:00 | 43.84942 | 4.82827 | 7876 ft | 264 kts | 159° |
| 2026-05-03 22:00 | 43.83243 | 4.83778 | 7583 ft | 263 kts | 159° |
| 2026-05-03 22:01 | 43.81556 | 4.84721 | 7295 ft | 261 kts | 159° |
| 2026-05-03 22:01 | 43.79879 | 4.85659 | 7005 ft | 259 kts | 159° |
| 2026-05-03 22:01 | 43.78214 | 4.86595 | 6719 ft | 258 kts | 158° |
| 2026-05-03 22:01 | 43.76565 | 4.87522 | 6470 ft | 250 kts | 158° |
| 2026-05-03 22:02 | 43.74991 | 4.88410 | 6376 ft | 240 kts | 158° |
| 2026-05-03 22:02 | 43.73485 | 4.89254 | 6273 ft | 227 kts | 158° |
| 2026-05-03 22:02 | 43.72058 | 4.90053 | 6145 ft | 215 kts | 158° |
| 2026-05-03 22:02 | 43.70707 | 4.90813 | 6047 ft | 211 kts | 158° |
| 2026-05-03 22:03 | 43.69358 | 4.91583 | 5943 ft | 210 kts | 158° |
| 2026-05-03 22:03 | 43.67996 | 4.92361 | 5714 ft | 213 kts | 158° |
| 2026-05-03 22:03 | 43.66664 | 4.93122 | 5472 ft | 208 kts | 157° |
| 2026-05-03 22:03 | 43.65344 | 4.93875 | 5249 ft | 202 kts | 157° |
| 2026-05-03 22:04 | 43.64071 | 4.94601 | 5037 ft | 194 kts | 156° |
| 2026-05-03 22:04 | 43.62851 | 4.95296 | 4835 ft | 185 kts | 156° |
| 2026-05-03 22:04 | 43.61692 | 4.95986 | 4618 ft | 176 kts | 149° |
| 2026-05-03 22:04 | 43.60830 | 4.97068 | 4509 ft | 165 kts | 134° |
| 2026-05-03 22:05 | 43.60298 | 4.97835 | 4369 ft | 162 kts | 135° |
| 2026-05-03 22:05 | 43.59261 | 4.99288 | 4092 ft | 157 kts | 135° |
| 2026-05-03 22:05 | 43.58515 | 5.00342 | 3881 ft | 151 kts | 135° |
| 2026-05-03 22:05 | 43.58035 | 5.01024 | 3756 ft | 149 kts | 134° |
| 2026-05-03 22:06 | 43.57310 | 5.02054 | 3564 ft | 150 kts | 134° |
| 2026-05-03 22:06 | 43.56580 | 5.03093 | 3364 ft | 151 kts | 134° |
| 2026-05-03 22:06 | 43.55850 | 5.04132 | 3158 ft | 151 kts | 134° |
| 2026-05-03 22:06 | 43.55121 | 5.05172 | 2956 ft | 150 kts | 134° |
| 2026-05-03 22:07 | 43.54392 | 5.06210 | 2748 ft | 150 kts | 133° |
| 2026-05-03 22:07 | 43.53669 | 5.07240 | 2548 ft | 151 kts | 133° |
| 2026-05-03 22:07 | 43.52944 | 5.08272 | 2361 ft | 146 kts | 133° |
| 2026-05-03 22:07 | 43.52275 | 5.09226 | 2148 ft | 139 kts | 133° |
| 2026-05-03 22:08 | 43.51611 | 5.10173 | 1995 ft | 135 kts | 133° |
| 2026-05-03 22:08 | 43.50973 | 5.11080 | 1813 ft | 137 kts | 132° |
| 2026-05-03 22:08 | 43.50326 | 5.12009 | 1653 ft | 131 kts | 131° |
| 2026-05-03 22:08 | 43.49697 | 5.12924 | 1455 ft | 133 kts | 133° |
| 2026-05-03 22:09 | 43.49047 | 5.13832 | 1270 ft | 133 kts | 133° |
| 2026-05-03 22:09 | 43.48405 | 5.14755 | 1116 ft | 133 kts | 133° |
| 2026-05-03 22:09 | 43.47752 | 5.15695 | 893 ft | 140 kts | 133° |
| 2026-05-03 22:10 | 43.46388 | 5.17650 | 480 ft | 138 kts | 134° |
| 2026-05-03 22:10 | 43.45723 | 5.18595 | 327 ft | 136 kts | 131° |
| 2026-05-03 22:10 | 43.45067 | 5.19525 | 159 ft | 134 kts | 133° |
| 2026-05-03 22:10 | 43.44426 | 5.20435 | 34 ft | 127 kts | 133° |
| 2026-05-03 22:11 | 43.43880 | 5.21215 | 29 ft | 96 kts | 135° |
| 2026-05-03 22:11 | 43.43523 | 5.21722 | 42 ft | 53 kts | 133° |
| 2026-05-03 22:11 | 43.43363 | 5.21954 | 49 ft | 16 kts | 126° |
| 2026-05-03 22:11 | 43.43333 | 5.22093 | 51 ft | 15 kts | 90° |
| 2026-05-03 22:12 | 43.43333 | 5.22162 | 52 ft | 0 kts | 89° |
| 2026-05-03 22:12 | 43.43333 | 5.22167 | 52 ft | 3 kts | 89° |
| 2026-05-03 22:12 | 43.43338 | 5.22213 | 52 ft | 5 kts | 72° |
| 2026-05-03 22:12 | 43.43361 | 5.22262 | 53 ft | 8 kts | 40° |
| 2026-05-03 22:13 | 43.43428 | 5.22274 | 52 ft | 13 kts | 340° |
| 2026-05-03 22:13 | 43.43528 | 5.22195 | 49 ft | 20 kts | 330° |
| 2026-05-03 22:13 | 43.43592 | 5.22145 | 47 ft | 7 kts | 330° |
| 2026-05-03 22:13 | 43.43643 | 5.22109 | 42 ft | 10 kts | 342° |
| 2026-05-03 22:14 | 43.43705 | 5.22153 | 45 ft | 12 kts | 52° |
| 2026-05-03 22:14 | 43.43762 | 5.22227 | 45 ft | 11 kts | 27° |
| 2026-05-03 22:14 | 43.43814 | 5.22219 | 44 ft | 2 kts | 344° |
| 2026-05-03 22:14 | 43.43835 | 5.22217 | 43 ft | 4 kts | 25° |
| 2026-05-03 22:15 | 43.43851 | 5.22260 | 43 ft | 6 kts | 70° |
| 2026-05-03 22:15 | 43.43855 | 5.22276 | 44 ft | 0 kts | 72° |
| 2026-05-03 22:15 | 43.43858 | 5.22288 | 43 ft | 3 kts | 73° |
| 2026-05-03 22:15 | 43.43862 | 5.22306 | 44 ft | 0 kts | 73° |